sensor_id;sensor_type;location;lat;lon;timestamp;temperature;humidity
17452;DHT22;8843;48.838;9.324;2023-09-30T00:01:57;20.00;74.20
17452;DHT22;8843;48.838;9.324;2023-09-30T00:04:24;20.00;74.70
17452;DHT22;8843;48.838;9.324;2023-09-30T00:06:52;20.00;74.60
17452;DHT22;8843;48.838;9.324;2023-09-30T00:09:19;20.00;74.60
17452;DHT22;8843;48.838;9.324;2023-09-30T00:11:47;20.00;74.80
17452;DHT22;8843;48.838;9.324;2023-09-30T00:14:15;20.00;74.90
17452;DHT22;8843;48.838;9.324;2023-09-30T00:16:42;20.00;75.10
17452;DHT22;8843;48.838;9.324;2023-09-30T00:19:09;20.00;75.10
17452;DHT22;8843;48.838;9.324;2023-09-30T00:21:36;20.00;74.90
17452;DHT22;8843;48.838;9.324;2023-09-30T00:24:04;20.00;75.00
17452;DHT22;8843;48.838;9.324;2023-09-30T00:26:30;20.00;75.20
17452;DHT22;8843;48.838;9.324;2023-09-30T00:28:57;20.00;75.30
17452;DHT22;8843;48.838;9.324;2023-09-30T00:31:25;20.00;75.10
17452;DHT22;8843;48.838;9.324;2023-09-30T00:33:52;20.00;75.20
17452;DHT22;8843;48.838;9.324;2023-09-30T00:36:20;20.00;74.90
17452;DHT22;8843;48.838;9.324;2023-09-30T00:38:47;20.00;75.30
17452;DHT22;8843;48.838;9.324;2023-09-30T00:41:14;20.00;74.90
17452;DHT22;8843;48.838;9.324;2023-09-30T00:43:41;20.00;75.20
17452;DHT22;8843;48.838;9.324;2023-09-30T00:46:16;20.00;75.30
17452;DHT22;8843;48.838;9.324;2023-09-30T00:48:45;20.00;75.40
17452;DHT22;8843;48.838;9.324;2023-09-30T00:51:13;19.90;75.90
17452;DHT22;8843;48.838;9.324;2023-09-30T00:53:40;19.90;75.10
17452;DHT22;8843;48.838;9.324;2023-09-30T00:56:07;20.00;75.20
17452;DHT22;8843;48.838;9.324;2023-09-30T00:58:34;19.90;75.30
17452;DHT22;8843;48.838;9.324;2023-09-30T01:01:02;19.90;75.20
17452;DHT22;8843;48.838;9.324;2023-09-30T01:03:29;19.90;75.20
17452;DHT22;8843;48.838;9.324;2023-09-30T01:05:57;19.90;74.80
17452;DHT22;8843;48.838;9.324;2023-09-30T01:08:25;19.90;75.20
17452;DHT22;8843;48.838;9.324;2023-09-30T01:10:53;19.90;75.20
17452;DHT22;8843;48.838;9.324;2023-09-30T01:13:21;19.90;75.20
17452;DHT22;8843;48.838;9.324;2023-09-30T01:15:47;19.90;75.30
17452;DHT22;8843;48.838;9.324;2023-09-30T01:18:14;19.90;75.30
17452;DHT22;8843;48.838;9.324;2023-09-30T01:20:41;19.90;75.20
17452;DHT22;8843;48.838;9.324;2023-09-30T01:23:10;19.90;75.30
17452;DHT22;8843;48.838;9.324;2023-09-30T01:25:38;19.90;75.40
17452;DHT22;8843;48.838;9.324;2023-09-30T01:28:08;19.90;75.50
17452;DHT22;8843;48.838;9.324;2023-09-30T01:30:35;19.90;75.40
17452;DHT22;8843;48.838;9.324;2023-09-30T01:33:03;19.90;75.40
17452;DHT22;8843;48.838;9.324;2023-09-30T01:35:30;19.90;75.50
17452;DHT22;8843;48.838;9.324;2023-09-30T01:37:57;19.90;75.40
17452;DHT22;8843;48.838;9.324;2023-09-30T01:40:25;19.90;75.40
17452;DHT22;8843;48.838;9.324;2023-09-30T01:42:52;19.90;75.50
17452;DHT22;8843;48.838;9.324;2023-09-30T01:45:19;19.90;75.50
17452;DHT22;8843;48.838;9.324;2023-09-30T01:47:46;19.90;75.50
17452;DHT22;8843;48.838;9.324;2023-09-30T01:50:13;19.90;75.50
17452;DHT22;8843;48.838;9.324;2023-09-30T01:52:39;19.90;75.50
17452;DHT22;8843;48.838;9.324;2023-09-30T01:55:07;19.90;75.50
17452;DHT22;8843;48.838;9.324;2023-09-30T01:57:35;19.90;75.50
17452;DHT22;8843;48.838;9.324;2023-09-30T02:00:03;19.80;75.40
17452;DHT22;8843;48.838;9.324;2023-09-30T02:02:30;19.80;75.40
17452;DHT22;8843;48.838;9.324;2023-09-30T02:04:57;19.80;75.40
17452;DHT22;8843;48.838;9.324;2023-09-30T02:07:24;19.80;75.50
17452;DHT22;8843;48.838;9.324;2023-09-30T02:09:51;19.80;75.40
17452;DHT22;8843;48.838;9.324;2023-09-30T02:12:18;19.80;75.40
17452;DHT22;8843;48.838;9.324;2023-09-30T02:14:46;19.80;75.40
17452;DHT22;8843;48.838;9.324;2023-09-30T02:17:13;19.80;75.40
17452;DHT22;8843;48.838;9.324;2023-09-30T02:19:40;19.80;75.40
17452;DHT22;8843;48.838;9.324;2023-09-30T02:22:07;19.80;75.40
17452;DHT22;8843;48.838;9.324;2023-09-30T02:24:34;19.80;75.50
17452;DHT22;8843;48.838;9.324;2023-09-30T02:27:01;19.80;75.50
17452;DHT22;8843;48.838;9.324;2023-09-30T02:29:28;19.80;75.50
17452;DHT22;8843;48.838;9.324;2023-09-30T02:31:58;19.80;75.50
17452;DHT22;8843;48.838;9.324;2023-09-30T02:34:25;19.80;75.50
17452;DHT22;8843;48.838;9.324;2023-09-30T02:36:53;19.80;75.50
17452;DHT22;8843;48.838;9.324;2023-09-30T02:39:21;19.80;75.50
17452;DHT22;8843;48.838;9.324;2023-09-30T02:41:47;19.80;75.50
17452;DHT22;8843;48.838;9.324;2023-09-30T02:44:16;19.80;75.50
17452;DHT22;8843;48.838;9.324;2023-09-30T02:46:42;19.80;75.50
17452;DHT22;8843;48.838;9.324;2023-09-30T02:49:11;19.70;75.50
17452;DHT22;8843;48.838;9.324;2023-09-30T02:51:37;19.70;75.40
17452;DHT22;8843;48.838;9.324;2023-09-30T02:54:05;19.70;75.40
17452;DHT22;8843;48.838;9.324;2023-09-30T02:56:32;19.70;75.40
17452;DHT22;8843;48.838;9.324;2023-09-30T02:58:58;19.70;75.40
17452;DHT22;8843;48.838;9.324;2023-09-30T03:01:26;19.70;75.40
17452;DHT22;8843;48.838;9.324;2023-09-30T03:03:53;19.70;75.40
17452;DHT22;8843;48.838;9.324;2023-09-30T03:06:22;19.70;75.40
17452;DHT22;8843;48.838;9.324;2023-09-30T03:08:48;19.70;75.40
17452;DHT22;8843;48.838;9.324;2023-09-30T03:11:17;19.70;75.40
17452;DHT22;8843;48.838;9.324;2023-09-30T03:13:45;19.70;75.40
17452;DHT22;8843;48.838;9.324;2023-09-30T03:16:12;19.70;75.40
17452;DHT22;8843;48.838;9.324;2023-09-30T03:18:39;19.70;75.40
17452;DHT22;8843;48.838;9.324;2023-09-30T03:21:13;19.70;75.40
17452;DHT22;8843;48.838;9.324;2023-09-30T03:23:42;19.70;75.40
17452;DHT22;8843;48.838;9.324;2023-09-30T03:26:09;19.70;75.30
17452;DHT22;8843;48.838;9.324;2023-09-30T03:28:36;19.70;75.30
17452;DHT22;8843;48.838;9.324;2023-09-30T03:31:03;19.70;75.40
17452;DHT22;8843;48.838;9.324;2023-09-30T03:33:31;19.70;76.10
17452;DHT22;8843;48.838;9.324;2023-09-30T03:35:59;19.70;75.40
17452;DHT22;8843;48.838;9.324;2023-09-30T03:38:26;19.70;75.40
17452;DHT22;8843;48.838;9.324;2023-09-30T03:40:54;19.70;75.40
17452;DHT22;8843;48.838;9.324;2023-09-30T03:43:24;19.60;76.10
17452;DHT22;8843;48.838;9.324;2023-09-30T03:45:51;19.70;76.10
17452;DHT22;8843;48.838;9.324;2023-09-30T03:48:19;19.60;75.30
17452;DHT22;8843;48.838;9.324;2023-09-30T03:50:46;19.70;76.30
17452;DHT22;8843;48.838;9.324;2023-09-30T03:53:14;19.70;75.30
17452;DHT22;8843;48.838;9.324;2023-09-30T03:55:40;19.70;75.30
17452;DHT22;8843;48.838;9.324;2023-09-30T03:58:09;19.60;75.20
17452;DHT22;8843;48.838;9.324;2023-09-30T04:00:36;19.60;75.30
17452;DHT22;8843;48.838;9.324;2023-09-30T04:03:03;19.60;75.20
17452;DHT22;8843;48.838;9.324;2023-09-30T04:05:30;19.60;75.40
17452;DHT22;8843;48.838;9.324;2023-09-30T04:08:02;19.60;75.40
17452;DHT22;8843;48.838;9.324;2023-09-30T04:10:30;18.80;74.40
17452;DHT22;8843;48.838;9.324;2023-09-30T04:12:57;19.30;78.30
17452;DHT22;8843;48.838;9.324;2023-09-30T04:15:25;19.40;77.00
17452;DHT22;8843;48.838;9.324;2023-09-30T04:17:52;19.50;76.60
17452;DHT22;8843;48.838;9.324;2023-09-30T04:20:19;19.60;76.90
17452;DHT22;8843;48.838;9.324;2023-09-30T04:22:49;19.60;76.60
17452;DHT22;8843;48.838;9.324;2023-09-30T04:25:16;19.60;75.80
17452;DHT22;8843;48.838;9.324;2023-09-30T04:27:43;19.60;75.70
17452;DHT22;8843;48.838;9.324;2023-09-30T04:30:13;19.50;75.60
17452;DHT22;8843;48.838;9.324;2023-09-30T04:32:42;19.60;75.70
17452;DHT22;8843;48.838;9.324;2023-09-30T04:35:10;19.50;75.60
17452;DHT22;8843;48.838;9.324;2023-09-30T04:37:37;19.60;75.70
17452;DHT22;8843;48.838;9.324;2023-09-30T04:40:05;19.60;75.70
17452;DHT22;8843;48.838;9.324;2023-09-30T04:42:41;19.60;75.60
17452;DHT22;8843;48.838;9.324;2023-09-30T04:45:09;19.50;75.60
17452;DHT22;8843;48.838;9.324;2023-09-30T04:47:36;19.60;75.70
17452;DHT22;8843;48.838;9.324;2023-09-30T04:50:07;19.50;75.60
17452;DHT22;8843;48.838;9.324;2023-09-30T04:52:34;19.60;75.70
17452;DHT22;8843;48.838;9.324;2023-09-30T04:55:01;19.50;75.60
17452;DHT22;8843;48.838;9.324;2023-09-30T04:57:29;19.50;75.60
17452;DHT22;8843;48.838;9.324;2023-09-30T04:59:57;19.50;75.60
17452;DHT22;8843;48.838;9.324;2023-09-30T05:02:24;19.50;75.50
17452;DHT22;8843;48.838;9.324;2023-09-30T05:04:51;19.50;75.50
17452;DHT22;8843;48.838;9.324;2023-09-30T05:07:20;19.50;75.50
17452;DHT22;8843;48.838;9.324;2023-09-30T05:09:48;19.50;75.50
17452;DHT22;8843;48.838;9.324;2023-09-30T05:12:14;19.50;75.50
17452;DHT22;8843;48.838;9.324;2023-09-30T05:14:42;19.50;75.50
17452;DHT22;8843;48.838;9.324;2023-09-30T05:17:09;19.50;76.20
17452;DHT22;8843;48.838;9.324;2023-09-30T05:19:36;19.50;75.50
17452;DHT22;8843;48.838;9.324;2023-09-30T05:22:03;19.50;75.50
17452;DHT22;8843;48.838;9.324;2023-09-30T05:24:32;19.50;76.20
17452;DHT22;8843;48.838;9.324;2023-09-30T05:27:00;19.50;75.50
17452;DHT22;8843;48.838;9.324;2023-09-30T05:29:27;19.20;76.30
17452;DHT22;8843;48.838;9.324;2023-09-30T05:31:54;18.50;74.00
17452;DHT22;8843;48.838;9.324;2023-09-30T05:34:21;18.30;75.10
17452;DHT22;8843;48.838;9.324;2023-09-30T05:36:48;18.10;75.70
17452;DHT22;8843;48.838;9.324;2023-09-30T05:39:17;18.00;76.10
17452;DHT22;8843;48.838;9.324;2023-09-30T05:41:46;18.00;76.40
17452;DHT22;8843;48.838;9.324;2023-09-30T05:44:13;17.90;76.60
17452;DHT22;8843;48.838;9.324;2023-09-30T05:46:40;17.90;76.80
17452;DHT22;8843;48.838;9.324;2023-09-30T05:49:08;18.10;80.80
17452;DHT22;8843;48.838;9.324;2023-09-30T05:54:06;18.90;78.80
17452;DHT22;8843;48.838;9.324;2023-09-30T05:56:35;19.00;77.40
17452;DHT22;8843;48.838;9.324;2023-09-30T05:59:04;19.10;77.10
17452;DHT22;8843;48.838;9.324;2023-09-30T06:01:32;19.20;76.90
17452;DHT22;8843;48.838;9.324;2023-09-30T06:03:59;19.20;76.70
17452;DHT22;8843;48.838;9.324;2023-09-30T06:06:26;19.20;76.60
17452;DHT22;8843;48.838;9.324;2023-09-30T06:08:54;19.20;76.40
17452;DHT22;8843;48.838;9.324;2023-09-30T06:11:21;19.20;76.40
17452;DHT22;8843;48.838;9.324;2023-09-30T06:13:49;19.20;76.30
17452;DHT22;8843;48.838;9.324;2023-09-30T06:16:20;19.20;76.30
17452;DHT22;8843;48.838;9.324;2023-09-30T06:18:47;19.20;76.20
17452;DHT22;8843;48.838;9.324;2023-09-30T06:21:14;19.20;76.20
17452;DHT22;8843;48.838;9.324;2023-09-30T06:23:43;19.20;76.20
17452;DHT22;8843;48.838;9.324;2023-09-30T06:26:10;19.20;76.20
17452;DHT22;8843;48.838;9.324;2023-09-30T06:28:37;19.20;76.10
17452;DHT22;8843;48.838;9.324;2023-09-30T06:31:06;19.20;76.10
17452;DHT22;8843;48.838;9.324;2023-09-30T06:33:35;19.20;76.10
17452;DHT22;8843;48.838;9.324;2023-09-30T06:36:08;19.20;76.90
17452;DHT22;8843;48.838;9.324;2023-09-30T06:38:35;19.20;76.10
17452;DHT22;8843;48.838;9.324;2023-09-30T06:41:03;19.20;76.10
17452;DHT22;8843;48.838;9.324;2023-09-30T06:43:30;19.30;76.30
17452;DHT22;8843;48.838;9.324;2023-09-30T06:45:58;19.20;76.10
17452;DHT22;8843;48.838;9.324;2023-09-30T06:48:24;19.20;76.10
17452;DHT22;8843;48.838;9.324;2023-09-30T06:50:53;19.20;76.10
17452;DHT22;8843;48.838;9.324;2023-09-30T06:53:20;19.20;76.90
17452;DHT22;8843;48.838;9.324;2023-09-30T06:55:49;19.20;76.20
17452;DHT22;8843;48.838;9.324;2023-09-30T06:58:16;19.20;76.20
17452;DHT22;8843;48.838;9.324;2023-09-30T07:00:47;19.20;76.20
17452;DHT22;8843;48.838;9.324;2023-09-30T07:03:15;19.20;76.20
17452;DHT22;8843;48.838;9.324;2023-09-30T07:05:42;19.00;76.50
17452;DHT22;8843;48.838;9.324;2023-09-30T07:08:11;18.70;77.40
17452;DHT22;8843;48.838;9.324;2023-09-30T07:10:38;18.50;77.90
17452;DHT22;8843;48.838;9.324;2023-09-30T07:13:05;18.50;79.20
17452;DHT22;8843;48.838;9.324;2023-09-30T07:15:32;18.40;78.70
17452;DHT22;8843;48.838;9.324;2023-09-30T07:18:00;18.40;79.00
17452;DHT22;8843;48.838;9.324;2023-09-30T07:20:26;18.30;79.20
17452;DHT22;8843;48.838;9.324;2023-09-30T07:22:54;18.30;79.40
17452;DHT22;8843;48.838;9.324;2023-09-30T07:25:22;18.30;79.60
17452;DHT22;8843;48.838;9.324;2023-09-30T07:27:49;18.30;79.60
17452;DHT22;8843;48.838;9.324;2023-09-30T07:30:17;18.30;79.80
17452;DHT22;8843;48.838;9.324;2023-09-30T07:32:45;18.30;79.80
17452;DHT22;8843;48.838;9.324;2023-09-30T07:35:12;18.30;80.00
17452;DHT22;8843;48.838;9.324;2023-09-30T07:37:41;18.30;80.10
17452;DHT22;8843;48.838;9.324;2023-09-30T07:40:09;18.30;80.00
17452;DHT22;8843;48.838;9.324;2023-09-30T07:42:38;18.30;80.00
17452;DHT22;8843;48.838;9.324;2023-09-30T07:45:06;18.30;80.20
17452;DHT22;8843;48.838;9.324;2023-09-30T07:47:33;18.30;80.00
17452;DHT22;8843;48.838;9.324;2023-09-30T07:50:00;18.30;80.10
17452;DHT22;8843;48.838;9.324;2023-09-30T07:52:28;18.40;80.40
17452;DHT22;8843;48.838;9.324;2023-09-30T07:54:55;18.50;80.90
17452;DHT22;8843;48.838;9.324;2023-09-30T07:57:22;18.50;80.00
17452;DHT22;8843;48.838;9.324;2023-09-30T07:59:50;18.50;79.90
17452;DHT22;8843;48.838;9.324;2023-09-30T08:02:17;18.50;80.00
17452;DHT22;8843;48.838;9.324;2023-09-30T08:04:44;18.40;80.60
17452;DHT22;8843;48.838;9.324;2023-09-30T08:07:11;18.70;79.50
17452;DHT22;8843;48.838;9.324;2023-09-30T08:09:38;18.80;78.40
17452;DHT22;8843;48.838;9.324;2023-09-30T08:12:05;18.50;79.20
17452;DHT22;8843;48.838;9.324;2023-09-30T08:14:33;18.40;79.70
17452;DHT22;8843;48.838;9.324;2023-09-30T08:17:01;18.40;79.60
17452;DHT22;8843;48.838;9.324;2023-09-30T08:19:28;18.30;79.60
17452;DHT22;8843;48.838;9.324;2023-09-30T08:21:55;18.40;79.70
17452;DHT22;8843;48.838;9.324;2023-09-30T08:24:22;18.40;79.90
17452;DHT22;8843;48.838;9.324;2023-09-30T08:26:48;18.40;79.80
17452;DHT22;8843;48.838;9.324;2023-09-30T08:29:17;18.40;79.90
17452;DHT22;8843;48.838;9.324;2023-09-30T08:31:44;18.40;79.70
17452;DHT22;8843;48.838;9.324;2023-09-30T08:34:12;18.50;79.80
17452;DHT22;8843;48.838;9.324;2023-09-30T08:36:40;18.50;79.80
17452;DHT22;8843;48.838;9.324;2023-09-30T08:39:07;18.50;79.70
17452;DHT22;8843;48.838;9.324;2023-09-30T08:41:36;18.50;80.20
17452;DHT22;8843;48.838;9.324;2023-09-30T08:44:03;18.90;79.30
17452;DHT22;8843;48.838;9.324;2023-09-30T08:46:31;18.90;78.70
17452;DHT22;8843;48.838;9.324;2023-09-30T08:49:00;19.00;78.50
17452;DHT22;8843;48.838;9.324;2023-09-30T08:51:29;19.00;78.40
17452;DHT22;8843;48.838;9.324;2023-09-30T08:53:56;19.10;78.40
17452;DHT22;8843;48.838;9.324;2023-09-30T08:56:26;19.10;78.10
17452;DHT22;8843;48.838;9.324;2023-09-30T08:58:56;19.10;77.90
17452;DHT22;8843;48.838;9.324;2023-09-30T09:01:24;19.10;77.90
17452;DHT22;8843;48.838;9.324;2023-09-30T09:03:51;19.10;77.80
17452;DHT22;8843;48.838;9.324;2023-09-30T09:06:18;19.10;77.80
17452;DHT22;8843;48.838;9.324;2023-09-30T09:08:47;19.20;77.90
17452;DHT22;8843;48.838;9.324;2023-09-30T09:11:15;19.20;77.80
17452;DHT22;8843;48.838;9.324;2023-09-30T09:13:49;19.20;77.80
17452;DHT22;8843;48.838;9.324;2023-09-30T09:16:19;19.10;77.80
17452;DHT22;8843;48.838;9.324;2023-09-30T09:18:46;19.20;77.80
17452;DHT22;8843;48.838;9.324;2023-09-30T09:21:15;19.20;77.80
17452;DHT22;8843;48.838;9.324;2023-09-30T09:23:44;19.20;77.80
17452;DHT22;8843;48.838;9.324;2023-09-30T09:26:12;19.10;77.80
17452;DHT22;8843;48.838;9.324;2023-09-30T09:28:49;19.20;77.80
17452;DHT22;8843;48.838;9.324;2023-09-30T09:31:20;19.20;77.90
17452;DHT22;8843;48.838;9.324;2023-09-30T09:33:49;19.20;77.90
17452;DHT22;8843;48.838;9.324;2023-09-30T09:36:16;19.20;77.60
17452;DHT22;8843;48.838;9.324;2023-09-30T09:38:47;19.20;77.90
17452;DHT22;8843;48.838;9.324;2023-09-30T09:41:16;19.20;77.90
17452;DHT22;8843;48.838;9.324;2023-09-30T09:43:44;19.20;78.10
17452;DHT22;8843;48.838;9.324;2023-09-30T09:46:11;19.20;78.00
17452;DHT22;8843;48.838;9.324;2023-09-30T09:48:39;19.30;78.60
17452;DHT22;8843;48.838;9.324;2023-09-30T09:51:09;19.30;77.70
17452;DHT22;8843;48.838;9.324;2023-09-30T09:53:39;19.40;79.70
17452;DHT22;8843;48.838;9.324;2023-09-30T09:56:08;19.40;78.20
17452;DHT22;8843;48.838;9.324;2023-09-30T09:58:40;19.60;79.10
17452;DHT22;8843;48.838;9.324;2023-09-30T10:01:09;19.70;78.10
17452;DHT22;8843;48.838;9.324;2023-09-30T10:03:37;19.70;78.40
17452;DHT22;8843;48.838;9.324;2023-09-30T10:06:05;19.70;78.20
17452;DHT22;8843;48.838;9.324;2023-09-30T10:08:35;19.70;79.30
17452;DHT22;8843;48.838;9.324;2023-09-30T10:11:03;20.00;78.90
17452;DHT22;8843;48.838;9.324;2023-09-30T10:13:54;20.20;79.50
17452;DHT22;8843;48.838;9.324;2023-09-30T10:16:46;20.50;76.60
17452;DHT22;8843;48.838;9.324;2023-09-30T10:19:15;20.70;78.50
17452;DHT22;8843;48.838;9.324;2023-09-30T10:24:43;21.40;75.00
17452;DHT22;8843;48.838;9.324;2023-09-30T10:27:32;22.00;74.20
17452;DHT22;8843;48.838;9.324;2023-09-30T10:30:08;22.10;71.00
17452;DHT22;8843;48.838;9.324;2023-09-30T10:33:07;22.10;67.80
17452;DHT22;8843;48.838;9.324;2023-09-30T10:35:46;22.70;70.70
17452;DHT22;8843;48.838;9.324;2023-09-30T10:38:39;22.70;68.90
17452;DHT22;8843;48.838;9.324;2023-09-30T10:41:09;22.50;70.30
17452;DHT22;8843;48.838;9.324;2023-09-30T10:43:38;22.30;68.30
17452;DHT22;8843;48.838;9.324;2023-09-30T10:46:31;22.10;68.60
17452;DHT22;8843;48.838;9.324;2023-09-30T10:49:17;22.10;69.80
17452;DHT22;8843;48.838;9.324;2023-09-30T10:51:57;22.20;68.00
17452;DHT22;8843;48.838;9.324;2023-09-30T10:54:25;22.10;69.20
17452;DHT22;8843;48.838;9.324;2023-09-30T10:56:52;22.20;69.20
17452;DHT22;8843;48.838;9.324;2023-09-30T10:59:20;22.10;68.90
17452;DHT22;8843;48.838;9.324;2023-09-30T11:01:49;22.10;70.00
17452;DHT22;8843;48.838;9.324;2023-09-30T11:04:17;22.20;69.30
17452;DHT22;8843;48.838;9.324;2023-09-30T11:06:45;22.60;68.10
17452;DHT22;8843;48.838;9.324;2023-09-30T11:09:15;22.60;69.50
17452;DHT22;8843;48.838;9.324;2023-09-30T11:11:44;22.90;68.10
17452;DHT22;8843;48.838;9.324;2023-09-30T11:14:21;23.10;67.30
17452;DHT22;8843;48.838;9.324;2023-09-30T11:16:51;23.10;67.50
17452;DHT22;8843;48.838;9.324;2023-09-30T11:19:18;23.30;66.70
17452;DHT22;8843;48.838;9.324;2023-09-30T11:21:47;23.50;66.00
17452;DHT22;8843;48.838;9.324;2023-09-30T11:24:15;23.60;65.80
17452;DHT22;8843;48.838;9.324;2023-09-30T11:26:42;23.70;64.50
17452;DHT22;8843;48.838;9.324;2023-09-30T11:29:11;23.70;64.10
17452;DHT22;8843;48.838;9.324;2023-09-30T11:31:39;23.90;64.80
17452;DHT22;8843;48.838;9.324;2023-09-30T11:34:07;23.90;62.70
17452;DHT22;8843;48.838;9.324;2023-09-30T11:36:36;24.00;62.60
17452;DHT22;8843;48.838;9.324;2023-09-30T11:39:03;24.00;62.40
17452;DHT22;8843;48.838;9.324;2023-09-30T11:41:34;24.10;61.80
17452;DHT22;8843;48.838;9.324;2023-09-30T11:44:06;24.20;62.40
17452;DHT22;8843;48.838;9.324;2023-09-30T11:46:47;24.10;61.20
17452;DHT22;8843;48.838;9.324;2023-09-30T11:49:26;24.20;61.30
17452;DHT22;8843;48.838;9.324;2023-09-30T11:51:53;24.20;63.00
17452;DHT22;8843;48.838;9.324;2023-09-30T11:54:20;24.10;62.10
17452;DHT22;8843;48.838;9.324;2023-09-30T11:56:48;24.20;61.70
17452;DHT22;8843;48.838;9.324;2023-09-30T11:59:16;24.10;61.00
17452;DHT22;8843;48.838;9.324;2023-09-30T12:01:45;24.20;61.40
17452;DHT22;8843;48.838;9.324;2023-09-30T12:04:14;24.20;61.20
17452;DHT22;8843;48.838;9.324;2023-09-30T12:06:44;24.20;61.00
17452;DHT22;8843;48.838;9.324;2023-09-30T12:09:11;24.20;61.10
17452;DHT22;8843;48.838;9.324;2023-09-30T12:11:40;24.30;61.30
17452;DHT22;8843;48.838;9.324;2023-09-30T12:14:10;24.40;60.60
17452;DHT22;8843;48.838;9.324;2023-09-30T12:16:37;24.40;61.20
17452;DHT22;8843;48.838;9.324;2023-09-30T12:19:04;24.40;61.20
17452;DHT22;8843;48.838;9.324;2023-09-30T12:21:31;24.20;60.40
17452;DHT22;8843;48.838;9.324;2023-09-30T12:24:01;24.20;60.00
17452;DHT22;8843;48.838;9.324;2023-09-30T12:26:28;24.10;60.30
17452;DHT22;8843;48.838;9.324;2023-09-30T12:28:55;24.00;60.40
17452;DHT22;8843;48.838;9.324;2023-09-30T12:31:22;24.00;60.60
17452;DHT22;8843;48.838;9.324;2023-09-30T12:33:49;24.00;60.20
17452;DHT22;8843;48.838;9.324;2023-09-30T12:36:17;24.10;60.60
17452;DHT22;8843;48.838;9.324;2023-09-30T12:38:44;24.10;60.60
17452;DHT22;8843;48.838;9.324;2023-09-30T12:41:13;23.90;60.20
17452;DHT22;8843;48.838;9.324;2023-09-30T12:43:40;23.90;59.30
17452;DHT22;8843;48.838;9.324;2023-09-30T12:46:08;23.80;58.60
17452;DHT22;8843;48.838;9.324;2023-09-30T12:48:35;23.80;58.70
17452;DHT22;8843;48.838;9.324;2023-09-30T12:51:04;23.70;59.40
17452;DHT22;8843;48.838;9.324;2023-09-30T12:53:32;23.70;58.70
17452;DHT22;8843;48.838;9.324;2023-09-30T12:56:00;23.70;59.20
17452;DHT22;8843;48.838;9.324;2023-09-30T12:58:28;23.60;62.00
17452;DHT22;8843;48.838;9.324;2023-09-30T13:00:55;23.30;63.00
17452;DHT22;8843;48.838;9.324;2023-09-30T13:03:22;23.40;59.80
17452;DHT22;8843;48.838;9.324;2023-09-30T13:05:49;23.60;60.80
17452;DHT22;8843;48.838;9.324;2023-09-30T13:08:16;23.60;60.20
17452;DHT22;8843;48.838;9.324;2023-09-30T13:10:43;23.60;61.20
17452;DHT22;8843;48.838;9.324;2023-09-30T13:13:11;23.50;62.10
17452;DHT22;8843;48.838;9.324;2023-09-30T13:15:39;23.50;59.50
17452;DHT22;8843;48.838;9.324;2023-09-30T13:18:07;23.40;60.90
17452;DHT22;8843;48.838;9.324;2023-09-30T13:20:33;23.30;60.30
17452;DHT22;8843;48.838;9.324;2023-09-30T13:23:00;23.40;60.20
17452;DHT22;8843;48.838;9.324;2023-09-30T13:25:28;23.30;59.80
17452;DHT22;8843;48.838;9.324;2023-09-30T13:27:55;23.30;60.40
17452;DHT22;8843;48.838;9.324;2023-09-30T13:30:22;23.30;61.50
17452;DHT22;8843;48.838;9.324;2023-09-30T13:32:50;23.20;61.60
17452;DHT22;8843;48.838;9.324;2023-09-30T13:35:17;23.30;61.70
17452;DHT22;8843;48.838;9.324;2023-09-30T13:37:44;23.30;61.90
17452;DHT22;8843;48.838;9.324;2023-09-30T13:40:12;23.40;60.70
17452;DHT22;8843;48.838;9.324;2023-09-30T13:42:39;23.60;60.00
17452;DHT22;8843;48.838;9.324;2023-09-30T13:45:08;23.50;60.50
17452;DHT22;8843;48.838;9.324;2023-09-30T13:47:36;23.40;61.50
17452;DHT22;8843;48.838;9.324;2023-09-30T13:50:05;23.60;60.00
17452;DHT22;8843;48.838;9.324;2023-09-30T13:52:33;23.60;59.50
17452;DHT22;8843;48.838;9.324;2023-09-30T13:55:00;23.60;59.70
17452;DHT22;8843;48.838;9.324;2023-09-30T13:57:28;23.70;58.80
17452;DHT22;8843;48.838;9.324;2023-09-30T13:59:55;23.70;59.40
17452;DHT22;8843;48.838;9.324;2023-09-30T14:02:21;23.60;59.40
17452;DHT22;8843;48.838;9.324;2023-09-30T14:04:49;23.60;59.60
17452;DHT22;8843;48.838;9.324;2023-09-30T14:07:17;23.60;58.80
17452;DHT22;8843;48.838;9.324;2023-09-30T14:09:44;23.70;58.60
17452;DHT22;8843;48.838;9.324;2023-09-30T14:12:11;23.70;58.00
17452;DHT22;8843;48.838;9.324;2023-09-30T14:14:38;23.40;59.60
17452;DHT22;8843;48.838;9.324;2023-09-30T14:17:05;23.60;59.10
17452;DHT22;8843;48.838;9.324;2023-09-30T14:19:35;23.60;58.10
17452;DHT22;8843;48.838;9.324;2023-09-30T14:22:03;23.40;58.50
17452;DHT22;8843;48.838;9.324;2023-09-30T14:24:31;23.60;58.70
17452;DHT22;8843;48.838;9.324;2023-09-30T14:26:59;23.60;57.40
17452;DHT22;8843;48.838;9.324;2023-09-30T14:29:26;23.30;58.00
17452;DHT22;8843;48.838;9.324;2023-09-30T15:02:41;22.50;59.00
17452;DHT22;8843;48.838;9.324;2023-09-30T15:05:08;22.40;59.90
17452;DHT22;8843;48.838;9.324;2023-09-30T15:07:35;22.30;59.80
17452;DHT22;8843;48.838;9.324;2023-09-30T15:10:03;22.20;59.80
17452;DHT22;8843;48.838;9.324;2023-09-30T15:12:30;22.10;59.60
17452;DHT22;8843;48.838;9.324;2023-09-30T15:14:57;22.30;60.00
17452;DHT22;8843;48.838;9.324;2023-09-30T15:17:24;22.20;60.00
17452;DHT22;8843;48.838;9.324;2023-09-30T15:19:52;22.10;60.60
17452;DHT22;8843;48.838;9.324;2023-09-30T15:22:19;22.00;60.80
17452;DHT22;8843;48.838;9.324;2023-09-30T15:24:46;22.00;61.50
17452;DHT22;8843;48.838;9.324;2023-09-30T15:27:15;21.90;61.10
17452;DHT22;8843;48.838;9.324;2023-09-30T15:29:43;21.90;61.00
17452;DHT22;8843;48.838;9.324;2023-09-30T15:32:11;21.90;61.30
17452;DHT22;8843;48.838;9.324;2023-09-30T15:34:38;21.90;61.50
17452;DHT22;8843;48.838;9.324;2023-09-30T15:37:08;21.80;61.30
17452;DHT22;8843;48.838;9.324;2023-09-30T15:39:37;21.90;61.30
17452;DHT22;8843;48.838;9.324;2023-09-30T15:42:04;21.80;61.80
17452;DHT22;8843;48.838;9.324;2023-09-30T15:44:31;21.70;62.20
17452;DHT22;8843;48.838;9.324;2023-09-30T15:46:58;21.70;62.90
17452;DHT22;8843;48.838;9.324;2023-09-30T15:49:25;21.70;61.70
17452;DHT22;8843;48.838;9.324;2023-09-30T15:51:52;21.70;61.70
17452;DHT22;8843;48.838;9.324;2023-09-30T15:54:20;21.70;61.80
17452;DHT22;8843;48.838;9.324;2023-09-30T15:56:49;21.70;61.60
17452;DHT22;8843;48.838;9.324;2023-09-30T15:59:19;21.70;62.10
17452;DHT22;8843;48.838;9.324;2023-09-30T16:01:50;21.60;61.90
17452;DHT22;8843;48.838;9.324;2023-09-30T16:04:17;21.60;62.50
17452;DHT22;8843;48.838;9.324;2023-09-30T16:06:44;21.50;63.00
17452;DHT22;8843;48.838;9.324;2023-09-30T16:09:10;21.50;63.60
17452;DHT22;8843;48.838;9.324;2023-09-30T16:11:39;21.40;63.30
17452;DHT22;8843;48.838;9.324;2023-09-30T16:14:06;21.40;63.10
17452;DHT22;8843;48.838;9.324;2023-09-30T16:16:33;21.30;63.60
17452;DHT22;8843;48.838;9.324;2023-09-30T16:19:00;21.30;63.60
17452;DHT22;8843;48.838;9.324;2023-09-30T16:21:27;21.30;63.60
17452;DHT22;8843;48.838;9.324;2023-09-30T16:23:54;21.30;64.00
17452;DHT22;8843;48.838;9.324;2023-09-30T16:26:21;21.20;63.00
17452;DHT22;8843;48.838;9.324;2023-09-30T16:28:49;21.20;62.90